createdAt,value
2023-02-09T00:00:50.957Z,13.87
2023-02-09T00:03:54.244Z,13.67
2023-02-09T00:07:00.506Z,13.87
2023-02-09T00:10:03.481Z,14.80
2023-02-09T00:13:27.622Z,13.33
2023-02-09T00:16:30.373Z,13.80
2023-02-09T00:19:33.926Z,13.27
2023-02-09T00:22:37.993Z,13.80
2023-02-09T00:25:41.029Z,15.00
2023-02-09T00:28:46.730Z,15.50
2023-02-09T00:31:49.684Z,16.03
2023-02-09T00:34:52.532Z,16.00
2023-02-09T00:37:56.515Z,16.40
2023-02-09T00:40:59.381Z,16.13
2023-02-09T00:44:02.036Z,14.03
2023-02-09T00:47:07.739Z,14.90
2023-02-09T00:50:10.666Z,13.87
2023-02-09T00:53:14.686Z,13.27
2023-02-09T00:56:17.348Z,12.93
2023-02-09T00:59:22.190Z,14.60
2023-02-09T01:02:26.925Z,15.10
2023-02-09T01:05:29.627Z,14.63
2023-02-09T01:08:33.864Z,14.57
2023-02-09T01:11:36.572Z,15.43
2023-02-09T01:14:39.802Z,14.27
2023-02-09T01:17:42.579Z,14.57
2023-02-09T01:20:45.552Z,14.63
2023-02-09T01:23:50.054Z,14.43
2023-02-09T01:26:55.205Z,14.70
2023-02-09T01:30:01.161Z,15.30
2023-02-09T01:33:03.870Z,15.77
2023-02-09T01:36:11.049Z,16.03
2023-02-09T01:39:18.245Z,16.00
2023-02-09T01:42:22.643Z,15.67
2023-02-09T01:45:34.920Z,14.40
2023-02-09T01:48:37.735Z,14.33
2023-02-09T01:51:49.298Z,15.23
2023-02-09T01:54:58.295Z,14.73
2023-02-09T01:58:08.133Z,16.13
2023-02-09T02:01:12.388Z,16.33
2023-02-09T02:04:18.081Z,15.13
2023-02-09T02:07:32.340Z,16.13
2023-02-09T02:10:39.003Z,14.60
2023-02-09T02:13:41.660Z,14.93
2023-02-09T02:16:59.726Z,20.73
2023-02-09T02:20:46.224Z,16.57
2023-02-09T02:24:05.720Z,15.10
2023-02-09T02:27:11.553Z,15.27
2023-02-09T02:30:46.846Z,15.53
2023-02-09T02:34:02.120Z,15.40
2023-02-09T02:37:19.410Z,15.07
2023-02-09T02:40:33.353Z,16.40
2023-02-09T02:43:44.989Z,15.27
2023-02-09T02:46:52.302Z,14.63
2023-02-09T02:50:01.978Z,13.73
2023-02-09T02:53:07.938Z,14.07
2023-02-09T02:56:13.897Z,12.13
2023-02-09T02:59:21.588Z,14.10
2023-02-09T03:02:31.671Z,16.10
2023-02-09T03:05:35.991Z,13.57
2023-02-09T03:08:51.448Z,13.13
2023-02-09T03:11:58.620Z,16.23
2023-02-09T03:15:14.717Z,14.60
2023-02-09T03:18:26.707Z,14.43
2023-02-09T03:21:47.516Z,15.50
2023-02-09T03:24:58.755Z,15.43
2023-02-09T03:28:06.805Z,13.67
2023-02-09T03:31:12.421Z,12.77
2023-02-09T03:34:16.166Z,15.10
2023-02-09T03:37:24.070Z,15.03
2023-02-09T03:40:26.942Z,16.10
2023-02-09T03:43:43.540Z,16.10
2023-02-09T03:46:48.621Z,14.20
2023-02-09T03:49:54.328Z,15.47
2023-02-09T03:52:58.438Z,15.37
2023-02-09T03:56:03.538Z,14.60
2023-02-09T03:59:06.612Z,15.13
2023-02-09T04:02:10.727Z,15.00
2023-02-09T04:05:13.772Z,14.90
2023-02-09T04:08:21.427Z,15.30
2023-02-09T04:11:24.190Z,15.07
2023-02-09T04:14:26.930Z,14.60
2023-02-09T04:17:29.581Z,13.63
2023-02-09T04:20:32.332Z,15.90
2023-02-09T04:23:36.821Z,15.63
2023-02-09T04:26:41.700Z,17.40
2023-02-09T04:29:44.354Z,16.80
2023-02-09T04:32:50.044Z,16.10
2023-02-09T04:35:53.603Z,18.33
2023-02-09T04:39:00.723Z,16.50
2023-02-09T04:42:03.607Z,16.73
2023-02-09T04:45:07.305Z,15.73
2023-02-09T04:48:13.715Z,17.53
2023-02-09T04:51:16.757Z,17.47
2023-02-09T04:54:20.762Z,16.77
2023-02-09T04:57:40.936Z,16.27
2023-02-09T05:00:44.403Z,16.23
2023-02-09T05:03:47.383Z,15.93
2023-02-09T05:06:52.512Z,16.63
2023-02-09T05:09:56.850Z,16.17
2023-02-09T05:12:59.479Z,14.83
2023-02-09T05:16:06.580Z,14.60
2023-02-09T05:19:09.235Z,15.00
2023-02-09T05:22:11.870Z,14.63
2023-02-09T05:25:15.914Z,15.80
2023-02-09T05:28:18.627Z,14.90
2023-02-09T05:31:21.301Z,14.73
2023-02-09T05:34:24.368Z,17.47
2023-02-09T05:37:27.020Z,16.57
2023-02-09T05:40:31.000Z,15.90
2023-02-09T05:43:33.630Z,15.70
2023-02-09T05:46:36.391Z,16.57
2023-02-09T05:49:39.286Z,16.33
2023-02-09T05:52:41.928Z,16.27
2023-02-09T05:55:47.505Z,26.87
2023-02-09T05:58:50.328Z,19.73
2023-02-09T06:01:53.348Z,19.20
2023-02-09T06:04:55.985Z,19.23
2023-02-09T06:07:58.933Z,18.30
2023-02-09T06:11:04.083Z,18.93
2023-02-09T06:14:07.014Z,17.77
2023-02-09T06:17:09.748Z,18.17
2023-02-09T06:20:13.401Z,23.10
2023-02-09T06:23:16.162Z,20.97
2023-02-09T06:26:20.440Z,21.97
2023-02-09T06:29:23.214Z,27.33
2023-02-09T06:32:25.863Z,23.37
2023-02-09T06:35:28.568Z,24.20
2023-02-09T06:38:31.657Z,23.53
2023-02-09T06:41:36.224Z,18.13
2023-02-09T06:44:38.964Z,19.47
2023-02-09T06:47:42.334Z,14.70
2023-02-09T06:50:45.371Z,16.77
2023-02-09T06:53:48.266Z,14.90
2023-02-09T06:56:52.547Z,16.60
2023-02-09T06:59:57.945Z,16.17
2023-02-09T07:03:03.328Z,15.33
2023-02-09T07:06:11.193Z,15.77
2023-02-09T07:09:13.809Z,15.57
2023-02-09T07:12:17.810Z,17.87
2023-02-09T07:15:20.791Z,18.13
2023-02-09T07:18:23.496Z,16.37
2023-02-09T07:21:26.343Z,19.40
2023-02-09T07:24:28.976Z,24.00
2023-02-09T07:27:33.163Z,18.30
2023-02-09T07:30:35.828Z,36.97
2023-02-09T07:33:38.534Z,36.40
2023-02-09T07:36:41.169Z,39.83
2023-02-09T07:39:44.542Z,27.47
2023-02-09T07:42:48.597Z,25.10
2023-02-09T07:45:51.224Z,30.43
2023-02-09T07:48:53.904Z,22.23
2023-02-09T07:51:56.567Z,23.27
2023-02-09T07:54:59.330Z,21.70
2023-02-09T07:58:04.113Z,14.23
2023-02-09T08:01:08.375Z,13.80
2023-02-09T08:04:11.122Z,26.20
2023-02-09T08:07:19.943Z,19.20
2023-02-09T08:10:23.928Z,16.40
2023-02-09T08:13:40.793Z,14.20
2023-02-09T08:16:43.809Z,17.20
2023-02-09T08:19:49.741Z,17.07
2023-02-09T08:22:55.483Z,15.83
2023-02-09T08:26:01.114Z,22.80
2023-02-09T08:29:05.140Z,20.13
2023-02-09T08:32:07.880Z,17.40
2023-02-09T08:35:11.128Z,14.80
2023-02-09T08:38:13.773Z,24.07
2023-02-09T08:41:17.783Z,23.63
2023-02-09T08:44:21.827Z,16.70
2023-02-09T08:47:26.371Z,14.30
2023-02-09T08:50:29.024Z,15.20
2023-02-09T08:53:31.906Z,15.07
2023-02-09T08:56:34.558Z,13.93
2023-02-09T08:59:38.554Z,10.67
2023-02-09T09:02:46.398Z,11.23
2023-02-09T09:05:59.081Z,13.63
2023-02-09T09:09:01.735Z,12.07
2023-02-09T09:12:05.163Z,11.47
2023-02-09T09:15:10.099Z,10.63
2023-02-09T09:18:13.064Z,6.93
2023-02-09T09:21:18.140Z,13.27
2023-02-09T09:24:23.366Z,7.27
2023-02-09T09:27:29.225Z,8.63
2023-02-09T09:30:37.035Z,9.90
2023-02-09T09:33:40.171Z,9.70
2023-02-09T09:36:42.938Z,4.60
2023-02-09T09:39:45.584Z,7.73
2023-02-09T09:42:53.723Z,8.27
2023-02-09T09:45:58.732Z,12.67
2023-02-09T09:49:02.018Z,12.60
2023-02-09T09:52:14.414Z,10.23
2023-02-09T09:55:23.701Z,11.67
2023-02-09T09:58:28.327Z,10.47
2023-02-09T10:01:34.332Z,11.20
2023-02-09T10:04:51.776Z,12.17
2023-02-09T10:07:59.932Z,11.03
2023-02-09T10:11:07.936Z,10.77
2023-02-09T10:14:11.490Z,6.70
2023-02-09T10:17:21.522Z,12.00
2023-02-09T10:20:43.316Z,13.07
2023-02-09T10:23:50.811Z,10.40
2023-02-09T10:27:10.812Z,13.50
2023-02-09T10:30:20.062Z,12.70
2023-02-09T10:33:24.080Z,11.30
2023-02-09T10:36:30.196Z,13.53
2023-02-09T10:39:36.501Z,11.87
2023-02-09T10:42:41.877Z,7.83
2023-02-09T10:45:46.736Z,9.63
2023-02-09T10:48:50.940Z,13.60
2023-02-09T10:52:06.853Z,10.90
2023-02-09T10:55:18.083Z,28.07
2023-02-09T10:58:26.960Z,11.60
2023-02-09T11:01:33.840Z,12.23
2023-02-09T11:04:40.658Z,13.40
2023-02-09T11:07:52.184Z,11.80
2023-02-09T11:11:03.915Z,11.97
2023-02-09T11:14:19.939Z,12.23
2023-02-09T11:17:30.942Z,12.73
2023-02-09T11:20:40.131Z,30.73
2023-02-09T11:27:31.009Z,15.13
2023-02-09T11:30:52.376Z,13.07
2023-02-09T11:34:06.772Z,13.07
2023-02-09T11:37:22.902Z,13.10
2023-02-09T11:40:30.312Z,13.30
2023-02-09T11:43:41.246Z,15.83
2023-02-09T11:46:50.263Z,14.40
2023-02-09T11:49:55.095Z,12.83
2023-02-09T11:53:02.820Z,15.57
2023-02-09T11:56:06.964Z,14.47
2023-02-09T11:59:21.731Z,14.27
2023-02-09T12:02:46.199Z,14.80
2023-02-09T12:05:51.757Z,13.33
2023-02-09T12:09:09.948Z,13.10
2023-02-09T12:12:23.701Z,11.97
2023-02-09T12:15:30.233Z,14.60
2023-02-09T12:18:36.125Z,15.03
2023-02-09T12:21:41.728Z,13.57
2023-02-09T12:25:14.082Z,15.77
2023-02-09T12:28:48.398Z,12.57
2023-02-09T12:32:27.540Z,15.53
2023-02-09T12:35:39.604Z,15.57
2023-02-09T12:38:54.527Z,14.37
2023-02-09T12:42:31.252Z,15.90
2023-02-09T12:45:36.811Z,16.70
2023-02-09T12:48:49.069Z,14.70
2023-02-09T12:52:16.296Z,16.67
2023-02-09T12:55:25.024Z,16.77
2023-02-09T12:58:41.268Z,29.50
2023-02-09T13:02:25.312Z,20.93
2023-02-09T13:05:30.868Z,15.63
2023-02-09T13:08:46.084Z,14.57
2023-02-09T13:11:52.362Z,14.40
2023-02-09T13:14:57.277Z,14.90
2023-02-09T13:18:12.940Z,15.00
2023-02-09T13:21:22.105Z,14.90
2023-02-09T13:24:33.920Z,13.63
2023-02-09T13:27:44.983Z,16.10
2023-02-09T13:30:50.552Z,14.80
2023-02-09T13:34:00.360Z,16.43
2023-02-09T13:37:16.171Z,12.83
2023-02-09T13:40:23.732Z,13.33
2023-02-09T13:43:34.805Z,14.50
2023-02-09T13:46:39.426Z,15.77
2023-02-09T13:49:42.414Z,14.60
2023-02-09T13:52:45.390Z,14.13
2023-02-09T13:55:50.026Z,14.80
2023-02-09T13:58:53.600Z,14.63
2023-02-09T14:01:57.754Z,14.03
2023-02-09T14:05:03.821Z,13.47
2023-02-09T14:08:07.635Z,14.93
2023-02-09T14:11:36.497Z,14.80
2023-02-09T14:15:06.180Z,14.43
2023-02-09T14:18:29.201Z,15.63
2023-02-09T14:21:44.391Z,16.90
2023-02-09T14:24:47.218Z,14.80
2023-02-09T14:27:50.420Z,14.90
2023-02-09T14:30:53.427Z,14.23
2023-02-09T14:33:58.149Z,14.50
2023-02-09T14:37:03.962Z,14.53
2023-02-09T14:40:21.933Z,14.73
2023-02-09T14:43:27.200Z,14.07
2023-02-09T14:46:46.551Z,15.20
2023-02-09T14:49:53.537Z,13.30
2023-02-09T14:53:11.842Z,14.33
2023-02-09T14:56:22.410Z,14.60
2023-02-09T14:59:25.370Z,16.10
2023-02-09T15:02:29.111Z,14.40
2023-02-09T15:05:33.375Z,11.70
2023-02-09T15:08:39.019Z,14.50
2023-02-09T15:11:59.855Z,13.20
2023-02-09T15:15:02.947Z,13.00
2023-02-09T15:18:06.322Z,15.33
2023-02-09T15:21:10.427Z,13.90
2023-02-09T15:24:14.030Z,14.80
2023-02-09T15:27:25.511Z,16.30
2023-02-09T15:30:31.668Z,15.37
2023-02-09T15:33:34.485Z,24.80
2023-02-09T15:36:38.876Z,16.70
2023-02-09T15:39:41.610Z,16.80
2023-02-09T15:43:05.412Z,16.13
2023-02-09T15:46:27.168Z,16.50
2023-02-09T15:49:30.913Z,16.57
2023-02-09T15:52:35.292Z,16.57
2023-02-09T15:55:38.961Z,15.57
2023-02-09T15:58:44.824Z,15.70
2023-02-09T16:01:48.489Z,16.90
2023-02-09T16:04:58.746Z,15.97
2023-02-09T16:08:02.879Z,17.23
2023-02-09T16:11:09.437Z,21.33
2023-02-09T16:14:16.491Z,22.47
2023-02-09T16:17:25.205Z,20.83
2023-02-09T16:20:29.014Z,19.30
2023-02-09T16:23:37.416Z,19.93
2023-02-09T16:26:40.068Z,18.93
2023-02-09T16:29:42.770Z,23.77
2023-02-09T16:32:45.810Z,17.10
2023-02-09T16:35:52.974Z,15.40
2023-02-09T16:38:56.989Z,16.33
2023-02-09T16:42:00.920Z,18.23
2023-02-09T16:45:03.864Z,27.70
2023-02-09T16:48:08.603Z,22.33
2023-02-09T16:51:14.154Z,18.67
2023-02-09T16:54:18.200Z,20.73
2023-02-09T16:57:26.629Z,17.37
2023-02-09T17:00:31.734Z,22.63
2023-02-09T17:03:36.047Z,17.27
2023-02-09T17:06:38.692Z,18.07
2023-02-09T17:09:42.728Z,16.87
2023-02-09T17:12:46.242Z,21.80
2023-02-09T17:15:52.762Z,19.47
2023-02-09T17:18:59.242Z,19.67
2023-02-09T17:22:09.908Z,19.17
2023-02-09T17:25:17.516Z,17.63
2023-02-09T17:28:22.693Z,21.40
2023-02-09T17:31:27.603Z,25.70
2023-02-09T17:34:30.463Z,30.87
2023-02-09T17:37:33.160Z,35.03
2023-02-09T17:40:37.945Z,28.30
2023-02-09T17:43:40.596Z,26.57
2023-02-09T17:46:43.331Z,24.33
2023-02-09T17:49:46.390Z,24.70
2023-02-09T17:52:49.592Z,24.03
2023-02-09T17:55:56.295Z,26.43
2023-02-09T17:59:02.998Z,30.53
2023-02-09T18:02:15.116Z,30.33
2023-02-09T18:05:20.735Z,34.20
2023-02-09T18:08:23.405Z,30.97
2023-02-09T18:11:41.628Z,40.67
2023-02-09T18:14:44.292Z,34.40
2023-02-09T18:17:47.025Z,25.50
2023-02-09T18:20:49.662Z,23.00
2023-02-09T18:23:52.358Z,20.87
2023-02-09T18:26:56.545Z,19.60
2023-02-09T18:29:59.514Z,19.03
2023-02-09T18:33:03.085Z,21.00
2023-02-09T18:36:07.516Z,22.67
2023-02-09T18:39:10.617Z,25.17
2023-02-09T18:42:16.128Z,23.50
2023-02-09T18:45:21.479Z,21.80
2023-02-09T18:48:24.195Z,28.07
2023-02-09T18:51:30.053Z,27.43
2023-02-09T18:54:33.692Z,26.60
2023-02-09T18:57:37.860Z,28.10
2023-02-09T19:00:40.943Z,31.13
2023-02-09T19:03:44.478Z,38.23
2023-02-09T19:06:47.075Z,33.83
2023-02-09T19:09:49.886Z,32.70
2023-02-09T19:12:54.302Z,38.03
2023-02-09T19:15:57.093Z,39.20
2023-02-09T19:19:00.766Z,42.20
2023-02-09T19:22:03.503Z,34.60
2023-02-09T19:25:06.792Z,41.30
2023-02-09T19:28:11.336Z,36.60
2023-02-09T19:31:14.730Z,46.10
2023-02-09T19:34:20.435Z,27.07
2023-02-09T19:37:23.232Z,29.27
2023-02-09T19:40:35.535Z,24.83
2023-02-09T19:43:40.534Z,23.17
2023-02-09T19:46:43.700Z,25.40
2023-02-09T19:49:46.498Z,25.60
2023-02-09T19:52:50.298Z,26.83
2023-02-09T19:55:54.318Z,25.80
2023-02-09T19:59:01.924Z,23.30
2023-02-09T20:02:04.740Z,23.27
2023-02-09T20:05:08.531Z,21.30
2023-02-09T20:08:14.516Z,21.47
2023-02-09T20:11:23.381Z,22.50
2023-02-09T20:14:33.043Z,24.17
2023-02-09T20:17:36.288Z,21.27
2023-02-09T20:20:42.078Z,21.63
2023-02-09T20:23:46.671Z,21.47
2023-02-09T20:26:49.572Z,21.70
2023-02-09T20:29:57.160Z,21.50
2023-02-09T20:33:02.134Z,21.30
2023-02-09T20:36:06.288Z,20.60
2023-02-09T20:39:13.327Z,19.57
2023-02-09T20:42:33.802Z,20.40
2023-02-09T20:45:55.410Z,20.30
2023-02-09T20:48:58.093Z,20.87
2023-02-09T20:52:00.800Z,20.00
2023-02-09T20:55:10.006Z,21.23
2023-02-09T20:58:13.670Z,19.67
2023-02-09T21:01:24.133Z,19.60
2023-02-09T21:04:29.998Z,19.57
2023-02-09T21:07:41.196Z,18.63
2023-02-09T21:10:43.810Z,20.07
2023-02-09T21:13:46.692Z,18.83
2023-02-09T21:16:55.465Z,19.87
2023-02-09T21:19:58.091Z,20.33
2023-02-09T21:23:00.728Z,19.90
2023-02-09T21:26:04.853Z,21.37
2023-02-09T21:29:07.907Z,21.10
2023-02-09T21:32:12.016Z,20.77
2023-02-09T21:35:14.805Z,20.97
2023-02-09T21:38:17.437Z,21.67
2023-02-09T21:41:39.682Z,28.13
2023-02-09T21:44:42.594Z,23.30
2023-02-09T21:47:46.658Z,24.87
2023-02-09T21:50:49.262Z,22.33
2023-02-09T21:53:52.646Z,24.30
2023-02-09T21:56:55.267Z,20.37
2023-02-09T21:59:59.023Z,20.57
2023-02-09T22:03:05.872Z,21.27
2023-02-09T22:06:08.931Z,20.17
2023-02-09T22:09:11.536Z,20.47
2023-02-09T22:12:14.249Z,25.47
2023-02-09T22:15:18.027Z,21.10
2023-02-09T22:18:24.624Z,23.07
2023-02-09T22:21:27.468Z,22.03
2023-02-09T22:24:34.671Z,19.67
2023-02-09T22:27:37.351Z,21.37
2023-02-09T22:30:40.134Z,20.17
2023-02-09T22:33:44.707Z,20.63
2023-02-09T22:36:47.417Z,19.40
2023-02-09T22:39:50.138Z,19.83
2023-02-09T22:42:55.245Z,19.57
2023-02-09T22:45:58.328Z,19.17
2023-02-09T22:49:07.110Z,19.47
2023-02-09T22:52:09.736Z,18.93
2023-02-09T22:55:14.597Z,20.07
2023-02-09T22:58:17.359Z,19.03
2023-02-09T23:01:20.080Z,20.93
2023-02-09T23:04:32.021Z,22.57
2023-02-09T23:07:34.717Z,22.40
2023-02-09T23:10:40.041Z,26.17
2023-02-09T23:13:43.081Z,25.20
2023-02-09T23:16:46.846Z,23.10
2023-02-09T23:19:53.663Z,22.73
2023-02-09T23:22:56.388Z,24.33
2023-02-09T23:25:59.338Z,23.67
2023-02-09T23:29:03.872Z,24.33
2023-02-09T23:32:06.694Z,21.43
2023-02-09T23:35:10.839Z,21.20
2023-02-09T23:38:17.942Z,19.53
2023-02-09T23:41:21.013Z,20.23
2023-02-09T23:44:23.651Z,22.50
2023-02-09T23:47:26.438Z,21.57
2023-02-09T23:50:38.219Z,22.03
2023-02-09T23:53:41.287Z,20.63
2023-02-09T23:56:48.662Z,20.77
2023-02-09T23:59:58.640Z,20.80
